sensor_id;sensor_type;location;lat;lon;timestamp;pressure;altitude;pressure_sealevel;temperature;humidity
65754;BME280;52488;47.502;18.940;2023-04-06T00:00:55;98188.41;;;-1.51;61.21
65754;BME280;52488;47.502;18.940;2023-04-06T00:01:58;98191.09;;;-1.45;60.71
65754;BME280;52488;47.502;18.940;2023-04-06T00:03:02;98189.44;;;-1.54;60.61
65754;BME280;52488;47.502;18.940;2023-04-06T00:04:05;98185.31;;;-1.61;61.02
65754;BME280;52488;47.502;18.940;2023-04-06T00:05:08;98185.78;;;-1.62;61.38
65754;BME280;52488;47.502;18.940;2023-04-06T00:06:11;98180.91;;;-1.64;61.54
65754;BME280;52488;47.502;18.940;2023-04-06T00:07:14;98186.78;;;-1.65;61.54
65754;BME280;52488;47.502;18.940;2023-04-06T00:08:18;98183.59;;;-1.64;61.63
65754;BME280;52488;47.502;18.940;2023-04-06T00:09:24;98185.06;;;-1.63;61.83
65754;BME280;52488;47.502;18.940;2023-04-06T00:10:27;98190.94;;;-1.64;61.88
65754;BME280;52488;47.502;18.940;2023-04-06T00:11:30;98189.47;;;-1.65;62.12
65754;BME280;52488;47.502;18.940;2023-04-06T00:12:33;98187.25;;;-1.67;62.12
65754;BME280;52488;47.502;18.940;2023-04-06T00:13:36;98186.53;;;-1.67;62.18
65754;BME280;52488;47.502;18.940;2023-04-06T00:14:39;98183.84;;;-1.67;62.19
65754;BME280;52488;47.502;18.940;2023-04-06T00:15:42;98179.19;;;-1.67;62.25
65754;BME280;52488;47.502;18.940;2023-04-06T00:16:46;98186.53;;;-1.67;62.26
65754;BME280;52488;47.502;18.940;2023-04-06T00:17:48;98183.12;;;-1.68;62.33
65754;BME280;52488;47.502;18.940;2023-04-06T00:18:52;98180.94;;;-1.69;62.52
65754;BME280;52488;47.502;18.940;2023-04-06T00:19:54;98185.81;;;-1.68;62.58
65754;BME280;52488;47.502;18.940;2023-04-06T00:20:57;98177.25;;;-1.66;62.26
65754;BME280;52488;47.502;18.940;2023-04-06T00:22:00;98179.19;;;-1.67;62.28
65754;BME280;52488;47.502;18.940;2023-04-06T00:23:05;98182.62;;;-1.66;62.30
65754;BME280;52488;47.502;18.940;2023-04-06T00:24:07;98175.03;;;-1.68;62.40
65754;BME280;52488;47.502;18.940;2023-04-06T00:25:10;98174.31;;;-1.68;62.30
65754;BME280;52488;47.502;18.940;2023-04-06T00:26:13;98175.31;;;-1.71;62.01
65754;BME280;52488;47.502;18.940;2023-04-06T00:27:17;98177.53;;;-1.75;62.46
65754;BME280;52488;47.502;18.940;2023-04-06T00:28:19;98176.28;;;-1.74;62.84
65754;BME280;52488;47.502;18.940;2023-04-06T00:29:27;98174.84;;;-1.75;62.81
65754;BME280;52488;47.502;18.940;2023-04-06T00:30:30;98178.47;;;-1.73;62.79
65754;BME280;52488;47.502;18.940;2023-04-06T00:31:33;98174.09;;;-1.76;63.06
65754;BME280;52488;47.502;18.940;2023-04-06T00:32:36;98179.22;;;-1.78;63.65
65754;BME280;52488;47.502;18.940;2023-04-06T00:33:38;98170.19;;;-1.80;63.45
65754;BME280;52488;47.502;18.940;2023-04-06T00:34:41;98170.94;;;-1.80;63.83
65754;BME280;52488;47.502;18.940;2023-04-06T00:35:44;98173.63;;;-1.80;63.72
65754;BME280;52488;47.502;18.940;2023-04-06T00:36:47;98168.97;;;-1.79;63.81
65754;BME280;52488;47.502;18.940;2023-04-06T00:37:50;98171.91;;;-1.77;63.59
65754;BME280;52488;47.502;18.940;2023-04-06T00:38:53;98166.03;;;-1.76;63.13
65754;BME280;52488;47.502;18.940;2023-04-06T00:39:56;98162.59;;;-1.76;62.81
65754;BME280;52488;47.502;18.940;2023-04-06T00:40:59;98170.44;;;-1.78;62.57
65754;BME280;52488;47.502;18.940;2023-04-06T00:42:09;98165.56;;;-1.86;62.58
65754;BME280;52488;47.502;18.940;2023-04-06T00:43:14;98167.06;;;-1.90;62.69
65754;BME280;52488;47.502;18.940;2023-04-06T00:44:18;98162.41;;;-1.95;62.79
65754;BME280;52488;47.502;18.940;2023-04-06T00:45:21;98161.94;;;-1.94;62.89
65754;BME280;52488;47.502;18.940;2023-04-06T00:46:23;98165.84;;;-1.95;62.86
65754;BME280;52488;47.502;18.940;2023-04-06T00:47:27;98157.53;;;-1.97;62.85
65754;BME280;52488;47.502;18.940;2023-04-06T00:48:30;98155.34;;;-1.98;62.84
65754;BME280;52488;47.502;18.940;2023-04-06T00:49:33;98156.81;;;-1.97;62.87
65754;BME280;52488;47.502;18.940;2023-04-06T00:50:37;98155.84;;;-2.00;62.81
65754;BME280;52488;47.502;18.940;2023-04-06T00:51:39;98157.81;;;-2.06;62.94
65754;BME280;52488;47.502;18.940;2023-04-06T00:52:42;98161.00;;;-2.07;63.38
65754;BME280;52488;47.502;18.940;2023-04-06T00:53:45;98158.06;;;-2.09;63.57
65754;BME280;52488;47.502;18.940;2023-04-06T00:54:49;98156.84;;;-2.08;63.79
65754;BME280;52488;47.502;18.940;2023-04-06T00:55:53;98156.13;;;-2.09;63.52
65754;BME280;52488;47.502;18.940;2023-04-06T00:56:56;98160.75;;;-2.04;63.39
65754;BME280;52488;47.502;18.940;2023-04-06T00:57:59;98152.41;;;-2.06;63.15
65754;BME280;52488;47.502;18.940;2023-04-06T00:59:03;98158.06;;;-2.09;63.28
65754;BME280;52488;47.502;18.940;2023-04-06T01:00:07;98156.63;;;-2.10;63.50
65754;BME280;52488;47.502;18.940;2023-04-06T01:01:10;98152.69;;;-2.09;63.37
65754;BME280;52488;47.502;18.940;2023-04-06T01:02:13;98157.09;;;-2.12;63.59
65754;BME280;52488;47.502;18.940;2023-04-06T01:03:16;98158.31;;;-2.13;63.80
65754;BME280;52488;47.502;18.940;2023-04-06T01:04:19;98159.56;;;-2.14;64.01
65754;BME280;52488;47.502;18.940;2023-04-06T01:05:22;98157.09;;;-2.12;64.02
65754;BME280;52488;47.502;18.940;2023-04-06T01:06:24;98160.03;;;-2.10;63.73
65754;BME280;52488;47.502;18.940;2023-04-06T01:07:27;98155.38;;;-2.09;63.82
65754;BME280;52488;47.502;18.940;2023-04-06T01:08:32;98168.84;;;-2.09;63.85
65754;BME280;52488;47.502;18.940;2023-04-06T01:09:35;98165.44;;;-2.10;63.89
65754;BME280;52488;47.502;18.940;2023-04-06T01:10:38;98162.22;;;-2.08;63.92
65754;BME280;52488;47.502;18.940;2023-04-06T01:11:41;98166.63;;;-2.00;63.63
65754;BME280;52488;47.502;18.940;2023-04-06T01:12:44;98166.13;;;-1.98;63.28
65754;BME280;52488;47.502;18.940;2023-04-06T01:13:47;98163.13;;;-1.89;62.81
65754;BME280;52488;47.502;18.940;2023-04-06T01:14:50;98162.16;;;-1.92;62.58
65754;BME280;52488;47.502;18.940;2023-04-06T01:15:53;98163.94;;;-2.00;62.53
65754;BME280;52488;47.502;18.940;2023-04-06T01:16:58;98162.69;;;-1.99;62.52
65754;BME280;52488;47.502;18.940;2023-04-06T01:18:02;98159.53;;;-2.03;62.23
65754;BME280;52488;47.502;18.940;2023-04-06T01:19:09;98161.97;;;-2.05;62.19
65754;BME280;52488;47.502;18.940;2023-04-06T01:20:12;98160.22;;;-1.97;62.02
65754;BME280;52488;47.502;18.940;2023-04-06T01:21:16;98164.16;;;-1.98;62.17
65754;BME280;52488;47.502;18.940;2023-04-06T01:22:19;98160.66;;;-1.81;62.37
65754;BME280;52488;47.502;18.940;2023-04-06T01:23:22;98156.25;;;-1.84;62.52
65754;BME280;52488;47.502;18.940;2023-04-06T01:24:25;98164.13;;;-1.92;62.74
65754;BME280;52488;47.502;18.940;2023-04-06T01:25:28;98168.97;;;-1.79;62.60
65754;BME280;52488;47.502;18.940;2023-04-06T01:26:31;98164.78;;;-1.75;62.27
65754;BME280;52488;47.502;18.940;2023-04-06T01:27:34;98161.63;;;-1.84;62.43
65754;BME280;52488;47.502;18.940;2023-04-06T01:28:37;98161.91;;;-1.82;62.49
65754;BME280;52488;47.502;18.940;2023-04-06T01:29:40;98158.50;;;-1.89;62.82
65754;BME280;52488;47.502;18.940;2023-04-06T01:30:44;98155.56;;;-1.96;63.38
65754;BME280;52488;47.502;18.940;2023-04-06T01:31:47;98162.41;;;-1.95;63.56
65754;BME280;52488;47.502;18.940;2023-04-06T01:32:50;98161.47;;;-1.98;63.50
65754;BME280;52488;47.502;18.940;2023-04-06T01:33:53;98160.00;;;-1.99;63.33
65754;BME280;52488;47.502;18.940;2023-04-06T01:34:57;98157.56;;;-2.02;63.25
65754;BME280;52488;47.502;18.940;2023-04-06T01:36:00;98156.31;;;-2.01;63.17
65754;BME280;52488;47.502;18.940;2023-04-06T01:37:02;98156.59;;;-2.05;63.12
65754;BME280;52488;47.502;18.940;2023-04-06T01:38:05;98158.81;;;-2.09;63.29
65754;BME280;52488;47.502;18.940;2023-04-06T01:39:08;98146.06;;;-2.03;63.45
65754;BME280;52488;47.502;18.940;2023-04-06T01:40:11;98152.81;;;-1.79;63.10
65754;BME280;52488;47.502;18.940;2023-04-06T01:41:16;98144.22;;;-1.78;62.83
65754;BME280;52488;47.502;18.940;2023-04-06T01:42:18;98145.41;;;-1.68;62.75
65754;BME280;52488;47.502;18.940;2023-04-06T01:43:21;98153.53;;;-1.79;62.90
65754;BME280;52488;47.502;18.940;2023-04-06T01:44:25;98151.41;;;-1.92;63.50
65754;BME280;52488;47.502;18.940;2023-04-06T01:45:28;98152.16;;;-1.97;63.72
65754;BME280;52488;47.502;18.940;2023-04-06T01:46:31;98152.16;;;-2.02;63.82
65754;BME280;52488;47.502;18.940;2023-04-06T01:47:34;98146.56;;;-2.04;63.96
65754;BME280;52488;47.502;18.940;2023-04-06T01:48:37;98148.53;;;-2.05;64.10
65754;BME280;52488;47.502;18.940;2023-04-06T01:49:39;98142.66;;;-2.09;64.11
65754;BME280;52488;47.502;18.940;2023-04-06T01:50:43;98146.06;;;-2.03;63.77
65754;BME280;52488;47.502;18.940;2023-04-06T01:51:45;98147.75;;;-1.94;63.48
65754;BME280;52488;47.502;18.940;2023-04-06T01:52:48;98147.47;;;-1.91;63.10
65754;BME280;52488;47.502;18.940;2023-04-06T01:53:51;98146.00;;;-1.92;62.95
65754;BME280;52488;47.502;18.940;2023-04-06T01:54:54;98143.09;;;-1.94;63.09
65754;BME280;52488;47.502;18.940;2023-04-06T01:55:57;98140.16;;;-1.96;63.28
65754;BME280;52488;47.502;18.940;2023-04-06T01:57:00;98144.31;;;-1.95;63.22
65754;BME280;52488;47.502;18.940;2023-04-06T01:58:03;98142.88;;;-2.01;63.41
65754;BME280;52488;47.502;18.940;2023-04-06T01:59:06;98141.41;;;-2.02;63.62
65754;BME280;52488;47.502;18.940;2023-04-06T02:00:10;98143.81;;;-1.93;63.17
65754;BME280;52488;47.502;18.940;2023-04-06T02:01:14;98139.41;;;-1.91;63.08
65754;BME280;52488;47.502;18.940;2023-04-06T02:02:17;98139.41;;;-1.91;62.96
65754;BME280;52488;47.502;18.940;2023-04-06T02:03:20;98144.06;;;-1.97;63.05
65754;BME280;52488;47.502;18.940;2023-04-06T02:04:23;98142.88;;;-2.07;63.32
65754;BME280;52488;47.502;18.940;2023-04-06T02:05:26;98143.41;;;-2.14;63.71
65754;BME280;52488;47.502;18.940;2023-04-06T02:06:29;98140.72;;;-2.14;63.96
65754;BME280;52488;47.502;18.940;2023-04-06T02:07:32;98140.94;;;-2.06;64.05
65754;BME280;52488;47.502;18.940;2023-04-06T02:08:35;98142.13;;;-1.96;63.48
65754;BME280;52488;47.502;18.940;2023-04-06T02:09:38;98129.91;;;-2.03;63.70
65754;BME280;52488;47.502;18.940;2023-04-06T02:10:41;98133.56;;;-2.06;63.60
65754;BME280;52488;47.502;18.940;2023-04-06T02:11:43;98136.28;;;-2.12;63.83
65754;BME280;52488;47.502;18.940;2023-04-06T02:12:46;98126.25;;;-2.00;63.71
65754;BME280;52488;47.502;18.940;2023-04-06T02:13:49;98136.72;;;-1.96;63.45
65754;BME280;52488;47.502;18.940;2023-04-06T02:14:52;98130.62;;;-2.02;63.47
65754;BME280;52488;47.502;18.940;2023-04-06T02:15:55;98129.22;;;-2.15;64.04
65754;BME280;52488;47.502;18.940;2023-04-06T02:16:58;98128.00;;;-2.19;64.40
65754;BME280;52488;47.502;18.940;2023-04-06T02:18:01;98131.91;;;-2.09;64.42
65754;BME280;52488;47.502;18.940;2023-04-06T02:19:03;98125.50;;;-2.06;64.20
65754;BME280;52488;47.502;18.940;2023-04-06T02:20:07;98125.28;;;-2.08;64.18
65754;BME280;52488;47.502;18.940;2023-04-06T02:21:10;98126.78;;;-2.18;64.63
65754;BME280;52488;47.502;18.940;2023-04-06T02:22:14;98132.44;;;-2.22;65.07
65754;BME280;52488;47.502;18.940;2023-04-06T02:23:17;98121.41;;;-2.18;64.93
65754;BME280;52488;47.502;18.940;2023-04-06T02:24:20;98126.03;;;-2.13;64.70
65754;BME280;52488;47.502;18.940;2023-04-06T02:25:23;98127.00;;;-2.05;64.25
65754;BME280;52488;47.502;18.940;2023-04-06T02:26:25;98116.97;;;-2.10;64.36
65754;BME280;52488;47.502;18.940;2023-04-06T02:27:28;98117.72;;;-2.15;64.54
65754;BME280;52488;47.502;18.940;2023-04-06T02:28:33;98125.56;;;-2.23;64.71
65754;BME280;52488;47.502;18.940;2023-04-06T02:29:36;98117.28;;;-2.30;65.15
65754;BME280;52488;47.502;18.940;2023-04-06T02:30:39;98117.06;;;-2.32;65.43
65754;BME280;52488;47.502;18.940;2023-04-06T02:31:42;98124.59;;;-2.25;65.26
65754;BME280;52488;47.502;18.940;2023-04-06T02:32:44;98111.41;;;-2.29;65.49
65754;BME280;52488;47.502;18.940;2023-04-06T02:33:47;98118.00;;;-2.30;65.59
65754;BME280;52488;47.502;18.940;2023-04-06T02:34:51;98114.56;;;-2.25;65.42
65754;BME280;52488;47.502;18.940;2023-04-06T02:35:54;98115.31;;;-2.24;65.38
65754;BME280;52488;47.502;18.940;2023-04-06T02:36:56;98110.66;;;-2.24;65.37
65754;BME280;52488;47.502;18.940;2023-04-06T02:37:59;98111.66;;;-2.27;65.48
65754;BME280;52488;47.502;18.940;2023-04-06T02:39:02;98117.94;;;-2.13;64.74
65754;BME280;52488;47.502;18.940;2023-04-06T02:40:06;98114.06;;;-2.23;65.10
65754;BME280;52488;47.502;18.940;2023-04-06T02:41:10;98109.94;;;-2.30;65.46
65754;BME280;52488;47.502;18.940;2023-04-06T02:42:13;98108.47;;;-2.31;65.33
65754;BME280;52488;47.502;18.940;2023-04-06T02:43:18;98112.16;;;-2.34;65.33
65754;BME280;52488;47.502;18.940;2023-04-06T02:44:21;98106.03;;;-2.29;65.24
65754;BME280;52488;47.502;18.940;2023-04-06T02:45:24;98111.66;;;-2.27;64.87
65754;BME280;52488;47.502;18.940;2023-04-06T02:46:27;98111.16;;;-2.31;64.94
65754;BME280;52488;47.502;18.940;2023-04-06T02:47:30;98107.00;;;-2.26;64.91
65754;BME280;52488;47.502;18.940;2023-04-06T02:48:33;98112.34;;;-2.15;64.37
65754;BME280;52488;47.502;18.940;2023-04-06T02:49:38;98113.31;;;-2.18;64.40
65754;BME280;52488;47.502;18.940;2023-04-06T02:50:41;98118.00;;;-2.24;64.64
65754;BME280;52488;47.502;18.940;2023-04-06T02:51:44;98111.66;;;-2.27;64.77
65754;BME280;52488;47.502;18.940;2023-04-06T02:52:47;98110.66;;;-2.29;64.98
65754;BME280;52488;47.502;18.940;2023-04-06T02:53:50;98109.72;;;-2.32;65.03
65754;BME280;52488;47.502;18.940;2023-04-06T02:54:52;98111.91;;;-2.30;65.04
65754;BME280;52488;47.502;18.940;2023-04-06T02:55:56;98106.47;;;-2.19;64.75
65754;BME280;52488;47.502;18.940;2023-04-06T02:56:58;98101.56;;;-2.15;64.30
65754;BME280;52488;47.502;18.940;2023-04-06T02:58:01;98104.03;;;-2.23;64.46
65754;BME280;52488;47.502;18.940;2023-04-06T02:59:04;98104.78;;;-2.28;64.74
65754;BME280;52488;47.502;18.940;2023-04-06T03:00:08;98107.25;;;-2.30;64.86
65754;BME280;52488;47.502;18.940;2023-04-06T03:01:12;98111.16;;;-2.31;64.71
65754;BME280;52488;47.502;18.940;2023-04-06T03:02:15;98102.87;;;-2.33;64.81
65754;BME280;52488;47.502;18.940;2023-04-06T03:03:17;98101.84;;;-2.24;64.85
65754;BME280;52488;47.502;18.940;2023-04-06T03:04:21;98097.50;;;-2.33;65.13
65754;BME280;52488;47.502;18.940;2023-04-06T03:05:25;98107.25;;;-2.30;64.99
65754;BME280;52488;47.502;18.940;2023-04-06T03:06:28;98104.09;;;-2.40;65.27
65754;BME280;52488;47.502;18.940;2023-04-06T03:07:31;98106.78;;;-2.40;65.52
65754;BME280;52488;47.502;18.940;2023-04-06T03:08:34;98102.87;;;-2.38;65.36
65754;BME280;52488;47.502;18.940;2023-04-06T03:09:37;98110.97;;;-2.38;65.39
65754;BME280;52488;47.502;18.940;2023-04-06T03:10:41;98098.72;;;-2.45;65.79
65754;BME280;52488;47.502;18.940;2023-04-06T03:11:44;98101.69;;;-2.49;66.12
65754;BME280;52488;47.502;18.940;2023-04-06T03:12:47;98101.69;;;-2.49;66.38
65754;BME280;52488;47.502;18.940;2023-04-06T03:13:49;98100.44;;;-2.36;65.90
65754;BME280;52488;47.502;18.940;2023-04-06T03:14:53;98100.63;;;-2.23;65.07
65754;BME280;52488;47.502;18.940;2023-04-06T03:15:55;98102.56;;;-2.18;64.85
65754;BME280;52488;47.502;18.940;2023-04-06T03:16:58;98105.28;;;-2.29;65.15
65754;BME280;52488;47.502;18.940;2023-04-06T03:18:02;98099.22;;;-2.41;65.64
65754;BME280;52488;47.502;18.940;2023-04-06T03:19:04;98098.72;;;-2.45;65.99
65754;BME280;52488;47.502;18.940;2023-04-06T03:20:08;98107.06;;;-2.49;66.37
65754;BME280;52488;47.502;18.940;2023-04-06T03:21:11;98102.63;;;-2.41;66.31
65754;BME280;52488;47.502;18.940;2023-04-06T03:22:14;98106.78;;;-2.34;65.78
65754;BME280;52488;47.502;18.940;2023-04-06T03:23:17;98109.97;;;-2.41;65.68
65754;BME280;52488;47.502;18.940;2023-04-06T03:24:23;98104.59;;;-2.47;66.00
65754;BME280;52488;47.502;18.940;2023-04-06T03:25:25;98103.84;;;-2.36;65.92
65754;BME280;52488;47.502;18.940;2023-04-06T03:26:28;98108.28;;;-2.44;66.00
65754;BME280;52488;47.502;18.940;2023-04-06T03:27:31;98106.81;;;-2.45;66.08
65754;BME280;52488;47.502;18.940;2023-04-06T03:28:35;98103.63;;;-2.44;66.08
65754;BME280;52488;47.502;18.940;2023-04-06T03:29:37;98104.84;;;-2.50;66.29
65754;BME280;52488;47.502;18.940;2023-04-06T03:30:40;98103.66;;;-2.49;66.29
65754;BME280;52488;47.502;18.940;2023-04-06T03:31:43;98106.31;;;-2.44;66.03
65754;BME280;52488;47.502;18.940;2023-04-06T03:32:46;98107.53;;;-2.45;65.96
65754;BME280;52488;47.502;18.940;2023-04-06T03:33:49;98104.84;;;-2.45;66.04
65754;BME280;52488;47.502;18.940;2023-04-06T03:34:52;98105.31;;;-2.35;65.80
65754;BME280;52488;47.502;18.940;2023-04-06T03:35:54;98095.28;;;-2.40;65.94
65754;BME280;52488;47.502;18.940;2023-04-06T03:36:58;98100.94;;;-2.44;66.16
65754;BME280;52488;47.502;18.940;2023-04-06T03:38:11;98107.06;;;-2.49;66.36
65754;BME280;52488;47.502;18.940;2023-04-06T03:39:14;98110.72;;;-2.46;66.26
65754;BME280;52488;47.502;18.940;2023-04-06T03:40:17;98108.28;;;-2.44;66.14
65754;BME280;52488;47.502;18.940;2023-04-06T03:41:20;98108.53;;;-2.48;66.14
65754;BME280;52488;47.502;18.940;2023-04-06T03:42:23;98112.91;;;-2.45;66.19
65754;BME280;52488;47.502;18.940;2023-04-06T03:43:26;98102.13;;;-2.33;65.65
65754;BME280;52488;47.502;18.940;2023-04-06T03:44:29;98109.97;;;-2.41;65.76
65754;BME280;52488;47.502;18.940;2023-04-06T03:45:32;98107.03;;;-2.37;65.89
65754;BME280;52488;47.502;18.940;2023-04-06T03:46:34;98102.38;;;-2.37;66.09
65754;BME280;52488;47.502;18.940;2023-04-06T03:47:37;98105.31;;;-2.35;65.95
65754;BME280;52488;47.502;18.940;2023-04-06T03:48:40;98110.41;;;-2.20;65.48
65754;BME280;52488;47.502;18.940;2023-04-06T03:49:43;98097.16;;;-2.18;64.81
65754;BME280;52488;47.502;18.940;2023-04-06T03:50:47;98103.59;;;-2.32;65.56
65754;BME280;52488;47.502;18.940;2023-04-06T03:51:49;98103.13;;;-2.42;66.38
65754;BME280;52488;47.502;18.940;2023-04-06T03:52:52;98099.97;;;-2.46;66.85
65754;BME280;52488;47.502;18.940;2023-04-06T03:53:55;98104.13;;;-2.51;67.44
65754;BME280;52488;47.502;18.940;2023-04-06T03:54:58;98102.66;;;-2.52;67.59
65754;BME280;52488;47.502;18.940;2023-04-06T03:56:01;98095.78;;;-2.42;67.50
65754;BME280;52488;47.502;18.940;2023-04-06T03:57:06;98101.13;;;-2.25;65.83
65754;BME280;52488;47.502;18.940;2023-04-06T03:58:09;98094.03;;;-2.28;65.60
65754;BME280;52488;47.502;18.940;2023-04-06T03:59:12;98095.97;;;-2.28;65.36
65754;BME280;52488;47.502;18.940;2023-04-06T04:00:15;98103.13;;;-2.36;65.76
65754;BME280;52488;47.502;18.940;2023-04-06T04:01:19;98104.81;;;-2.33;65.87
65754;BME280;52488;47.502;18.940;2023-04-06T04:02:21;98100.44;;;-2.36;65.67
65754;BME280;52488;47.502;18.940;2023-04-06T04:03:24;98097.75;;;-2.42;65.76
65754;BME280;52488;47.502;18.940;2023-04-06T04:04:30;98095.81;;;-2.47;66.00
65754;BME280;52488;47.502;18.940;2023-04-06T04:05:33;98092.62;;;-2.51;66.13
65754;BME280;52488;47.502;18.940;2023-04-06T04:06:36;98098.00;;;-2.51;66.15
65754;BME280;52488;47.502;18.940;2023-04-06T04:07:45;98090.44;;;-2.53;66.11
65754;BME280;52488;47.502;18.940;2023-04-06T04:08:48;98093.66;;;-2.60;66.17
65754;BME280;52488;47.502;18.940;2023-04-06T04:09:50;98091.69;;;-2.54;66.33
65754;BME280;52488;47.502;18.940;2023-04-06T04:10:53;98097.06;;;-2.59;66.39
65754;BME280;52488;47.502;18.940;2023-04-06T04:11:56;98090.44;;;-2.53;66.43
65754;BME280;52488;47.502;18.940;2023-04-06T04:12:59;98093.09;;;-2.36;65.73
65754;BME280;52488;47.502;18.940;2023-04-06T04:14:02;98090.41;;;-2.42;65.60
65754;BME280;52488;47.502;18.940;2023-04-06T04:15:05;98086.25;;;-2.43;65.76
65754;BME280;52488;47.502;18.940;2023-04-06T04:16:08;98081.09;;;-2.41;66.00
65754;BME280;52488;47.502;18.940;2023-04-06T04:17:11;98087.97;;;-2.45;66.15
65754;BME280;52488;47.502;18.940;2023-04-06T04:18:14;98089.72;;;-2.53;66.52
65754;BME280;52488;47.502;18.940;2023-04-06T04:19:17;98085.59;;;-2.60;66.88
65754;BME280;52488;47.502;18.940;2023-04-06T04:20:20;98090.22;;;-2.55;67.01
65754;BME280;52488;47.502;18.940;2023-04-06T04:21:22;98090.94;;;-2.49;66.36
65754;BME280;52488;47.502;18.940;2023-04-06T04:22:25;98094.38;;;-2.54;66.25
65754;BME280;52488;47.502;18.940;2023-04-06T04:23:30;98085.81;;;-2.52;66.19
65754;BME280;52488;47.502;18.940;2023-04-06T04:24:33;98083.09;;;-2.52;65.95
65754;BME280;52488;47.502;18.940;2023-04-06T04:25:35;98087.78;;;-2.58;66.75
65754;BME280;52488;47.502;18.940;2023-04-06T04:26:39;98088.28;;;-2.60;66.88
65754;BME280;52488;47.502;18.940;2023-04-06T04:27:42;98083.38;;;-2.61;66.86
65754;BME280;52488;47.502;18.940;2023-04-06T04:28:45;98092.66;;;-2.62;66.92
65754;BME280;52488;47.502;18.940;2023-04-06T04:29:48;98094.13;;;-2.61;67.22
65754;BME280;52488;47.502;18.940;2023-04-06T04:30:52;98085.09;;;-2.58;66.99
65754;BME280;52488;47.502;18.940;2023-04-06T04:31:55;98093.41;;;-2.62;66.95
65754;BME280;52488;47.502;18.940;2023-04-06T04:32:58;98086.31;;;-2.65;67.17
65754;BME280;52488;47.502;18.940;2023-04-06T04:34:01;98092.19;;;-2.67;67.55
65754;BME280;52488;47.502;18.940;2023-04-06T04:35:04;98090.47;;;-2.64;67.55
65754;BME280;52488;47.502;18.940;2023-04-06T04:36:07;98094.87;;;-2.61;67.62
65754;BME280;52488;47.502;18.940;2023-04-06T04:37:10;98100.50;;;-2.64;67.84
65754;BME280;52488;47.502;18.940;2023-04-06T04:38:13;98092.94;;;-2.66;68.00
65754;BME280;52488;47.502;18.940;2023-04-06T04:39:16;98098.31;;;-2.66;68.02
65754;BME280;52488;47.502;18.940;2023-04-06T04:40:19;98096.81;;;-2.61;67.68
65754;BME280;52488;47.502;18.940;2023-04-06T04:41:21;98093.16;;;-2.58;67.48
65754;BME280;52488;47.502;18.940;2023-04-06T04:42:24;98099.25;;;-2.58;67.39
65754;BME280;52488;47.502;18.940;2023-04-06T04:43:27;98087.03;;;-2.59;67.22
65754;BME280;52488;47.502;18.940;2023-04-06T04:44:32;98091.91;;;-2.57;67.09
65754;BME280;52488;47.502;18.940;2023-04-06T04:45:35;98095.81;;;-2.53;66.80
65754;BME280;52488;47.502;18.940;2023-04-06T04:46:38;98081.88;;;-2.51;66.53
65754;BME280;52488;47.502;18.940;2023-04-06T04:47:41;98087.53;;;-2.55;66.54
65754;BME280;52488;47.502;18.940;2023-04-06T04:48:44;98087.28;;;-2.57;66.78
65754;BME280;52488;47.502;18.940;2023-04-06T04:49:47;98084.59;;;-2.57;66.94
65754;BME280;52488;47.502;18.940;2023-04-06T04:50:50;98080.66;;;-2.56;66.97
65754;BME280;52488;47.502;18.940;2023-04-06T04:51:53;98089.72;;;-2.53;66.97
65754;BME280;52488;47.502;18.940;2023-04-06T04:52:55;98075.78;;;-2.52;66.84
65754;BME280;52488;47.502;18.940;2023-04-06T04:53:58;98081.84;;;-2.46;66.99
65754;BME280;52488;47.502;18.940;2023-04-06T04:55:01;98077.19;;;-2.40;66.71
65754;BME280;52488;47.502;18.940;2023-04-06T04:56:04;98076.22;;;-2.42;66.63
65754;BME280;52488;47.502;18.940;2023-04-06T04:57:07;98073.03;;;-2.41;66.67
65754;BME280;52488;47.502;18.940;2023-04-06T04:58:10;98082.34;;;-2.42;66.60
65754;BME280;52488;47.502;18.940;2023-04-06T04:59:16;98075.72;;;-2.41;67.08
65754;BME280;52488;47.502;18.940;2023-04-06T05:00:19;98073.78;;;-2.40;67.23
65754;BME280;52488;47.502;18.940;2023-04-06T05:01:23;98078.91;;;-2.36;67.21
65754;BME280;52488;47.502;18.940;2023-04-06T05:02:27;98074.22;;;-2.30;66.94
65754;BME280;52488;47.502;18.940;2023-04-06T05:03:30;98078.38;;;-2.29;67.25
65754;BME280;52488;47.502;18.940;2023-04-06T05:04:33;98081.06;;;-2.29;67.76
65754;BME280;52488;47.502;18.940;2023-04-06T05:05:35;98076.69;;;-2.27;67.76
65754;BME280;52488;47.502;18.940;2023-04-06T05:06:38;98077.63;;;-2.24;68.12
65754;BME280;52488;47.502;18.940;2023-04-06T05:07:42;98075.41;;;-2.20;67.74
65754;BME280;52488;47.502;18.940;2023-04-06T05:08:45;98072.69;;;-2.09;67.22
65754;BME280;52488;47.502;18.940;2023-04-06T05:09:48;98075.38;;;-2.09;66.90
65754;BME280;52488;47.502;18.940;2023-04-06T05:10:51;98072.41;;;-2.11;66.87
65754;BME280;52488;47.502;18.940;2023-04-06T05:11:54;98075.88;;;-2.10;66.93
65754;BME280;52488;47.502;18.940;2023-04-06T05:12:57;98075.88;;;-2.10;67.16
65754;BME280;52488;47.502;18.940;2023-04-06T05:13:59;98076.09;;;-2.08;67.20
65754;BME280;52488;47.502;18.940;2023-04-06T05:15:04;98070.94;;;-2.06;67.10
65754;BME280;52488;47.502;18.940;2023-04-06T05:16:12;98070.06;;;-1.79;65.97
65754;BME280;52488;47.502;18.940;2023-04-06T05:17:15;98073.19;;;-1.69;65.11
65754;BME280;52488;47.502;18.940;2023-04-06T05:18:18;98061.97;;;-1.79;65.45
65754;BME280;52488;47.502;18.940;2023-04-06T05:19:21;98059.31;;;-1.84;65.66
65754;BME280;52488;47.502;18.940;2023-04-06T05:20:24;98063.72;;;-1.81;65.77
65754;BME280;52488;47.502;18.940;2023-04-06T05:21:27;98067.03;;;-1.64;64.22
65754;BME280;52488;47.502;18.940;2023-04-06T05:22:30;98060.19;;;-1.65;64.27
65754;BME280;52488;47.502;18.940;2023-04-06T05:23:33;98059.94;;;-1.67;64.72
65754;BME280;52488;47.502;18.940;2023-04-06T05:24:36;98052.84;;;-1.65;64.99
65754;BME280;52488;47.502;18.940;2023-04-06T05:25:39;98048.19;;;-1.64;65.02
65754;BME280;52488;47.502;18.940;2023-04-06T05:26:41;98049.59;;;-1.57;64.95
65754;BME280;52488;47.502;18.940;2023-04-06T05:27:44;98052.53;;;-1.55;65.47
65754;BME280;52488;47.502;18.940;2023-04-06T05:28:47;98046.34;;;-1.50;65.55
65754;BME280;52488;47.502;18.940;2023-04-06T05:29:50;98043.88;;;-1.43;65.15
65754;BME280;52488;47.502;18.940;2023-04-06T05:30:53;98037.03;;;-1.44;64.99